Time;durP1;ratioP1;P1;durP2;ratioP2;P2;SDS_P1;SDS_P2;PMS_P1;PMS_P2;Temp;Humidity;BMP_temperature;BMP_pressure;BME280_temperature;BME280_humidity;BME280_pressure;Samples;Min_cycle;Max_cycle;Signal;HPM_P1;HPM_P2
2022/02/05 00:00:49;;;;;;;;;;;103.20;2227.20;;;;;;4880528;29;20428;-79
2022/02/05 00:03:21;;;;;;;;;;;103.10;2227.20;;;;;;4900687;29;19998;-76
2022/02/05 00:05:57;;;;;;;;;;;103.10;2227.20;;;;;;4883758;29;19908;-76
2022/02/05 00:40:48;;;;;;;;;;;103.00;2227.20;;;;;;4899874;29;20011;-75
2022/02/05 00:43:15;;;;;;;;;;;103.20;2227.20;;;;;;4883413;29;19913;-80
2022/02/05 00:45:45;;;;;;;;;;;103.20;2227.20;;;;;;4900242;29;19907;-79
2022/02/05 00:48:12;;;;;;;;;;;103.20;2227.20;;;;;;4900477;29;19911;-75
2022/02/05 00:50:41;;;;;;;;;;;103.00;2227.20;;;;;;4908824;29;19923;-76
2022/02/05 00:53:16;;;;;;;;;;;103.00;2227.20;;;;;;4909953;29;19911;-79
2022/02/05 00:55:51;;;;;;;;;;;102.80;2227.20;;;;;;4910070;29;20247;-77
2022/02/05 00:58:16;;;;;;;;;;;102.70;2227.20;;;;;;4909254;29;19907;-79
2022/02/05 01:00:42;;;;;;;;;;;102.60;2227.20;;;;;;4892196;29;19934;-79
2022/02/05 01:03:07;;;;;;;;;;;102.40;2227.20;;;;;;4909324;29;19973;-77
2022/02/05 01:05:34;;;;;;;;;;;102.40;2227.20;;;;;;4892545;29;19911;-79
2022/02/05 01:08:00;;;;;;;;;;;77.70;2227.20;;;;;;4907102;29;19914;-80
2022/02/05 01:10:26;;;;;;;;;;;77.70;2227.20;;;;;;4907711;29;19915;-78
2022/02/05 01:12:57;;;;;;;;;;;102.50;2227.20;;;;;;4908203;29;19907;-79
2022/02/05 01:15:28;;;;;;;;;;;102.60;2227.20;;;;;;4890178;29;19914;-75
2022/02/05 01:18:00;;;;;;;;;;;102.90;2227.20;;;;;;4912313;29;19930;-80
2022/02/05 01:23:07;;;;;;;;;;;128.10;2252.80;;;;;;4907409;29;19923;-78
2022/02/05 01:25:38;;;;;;;;;;;128.30;2252.80;;;;;;4907541;29;20005;-79
2022/02/05 01:28:18;;;;;;;;;;;128.20;2252.80;;;;;;4909351;29;19950;-78
2022/02/05 01:30:48;;;;;;;;;;;103.10;2227.20;;;;;;4906851;29;19930;-79
2022/02/05 01:52:10;;;;;;;;;;;102.60;2227.20;;;;;;4907320;29;20005;-80
2022/02/05 01:57:45;;;;;;;;;;;102.60;2227.20;;;;;;4876880;29;19987;-79
2022/02/05 02:05:38;;;;;;;;;;;102.90;2227.20;;;;;;4877617;29;19923;-78
2022/02/05 02:16:07;;;;;;;;;;;103.20;2227.20;;;;;;4877255;29;19922;-78
2022/02/05 02:18:54;;;;;;;;;;;103.20;2227.20;;;;;;4874426;29;20476;-78
2022/02/05 02:23:58;;;;;;;;;;;103.10;2227.20;;;;;;4877217;29;19908;-80
2022/02/05 02:29:06;;;;;;;;;;;103.30;2227.20;;;;;;4875198;29;19908;-76
2022/02/05 02:31:38;;;;;;;;;;;103.30;2227.20;;;;;;4874889;29;20451;-79
2022/02/05 02:34:07;;;;;;;;;;;103.20;2227.20;;;;;;4872679;29;19911;-79
2022/02/05 02:36:38;;;;;;;;;;;103.10;2227.20;;;;;;4906146;29;19994;-77
2022/02/05 02:42:19;;;;;;;;;;;103.20;2227.20;;;;;;4909032;29;19918;-75
2022/02/05 02:44:19;;;;;;;;;;;103.30;2227.20;;;;;;4901683;29;19907;-79
2022/02/05 02:46:44;;;;;;;;;;;103.30;2227.20;;;;;;4906188;29;20292;-79
2022/02/05 02:49:14;;;;;;;;;;;128.00;2252.80;;;;;;4891285;29;19911;-76
2022/02/05 02:57:24;;;;;;;;;;;153.70;2252.80;;;;;;4906003;29;19914;-75
2022/02/05 03:00:11;;;;;;;;;;;153.70;2252.80;;;;;;4905949;29;19911;-78
2022/02/05 03:02:37;;;;;;;;;;;153.80;2252.80;;;;;;4909997;29;19911;-77
2022/02/05 03:05:02;;;;;;;;;;;154.00;2252.80;;;;;;4907895;29;19934;-75
2022/02/05 03:07:28;;;;;;;;;;;128.90;2252.80;;;;;;4907693;29;19919;-77
2022/02/05 03:09:56;;;;;;;;;;;128.80;2252.80;;;;;;4889128;29;20331;-79
2022/02/05 03:12:21;;;;;;;;;;;128.50;2252.80;;;;;;4906705;29;19915;-79
2022/02/05 03:14:47;;;;;;;;;;;128.60;2252.80;;;;;;4907419;29;19907;-76
2022/02/05 03:17:21;;;;;;;;;;;128.80;2252.80;;;;;;4907838;29;19938;-76
2022/02/05 03:19:49;;;;;;;;;;;128.90;2252.80;;;;;;4890776;29;19915;-79
2022/02/05 03:22:15;;;;;;;;;;;153.60;2252.80;;;;;;4907691;29;19911;-76
2022/02/05 03:24:41;;;;;;;;;;;128.90;2252.80;;;;;;4890220;29;20348;-79
2022/02/05 03:27:07;;;;;;;;;;;128.90;2252.80;;;;;;4888909;29;19956;-79
2022/02/05 03:29:33;;;;;;;;;;;153.70;2252.80;;;;;;4905687;29;20002;-79
2022/02/05 03:31:59;;;;;;;;;;;153.80;2252.80;;;;;;4906835;29;19977;-79
2022/02/05 03:34:24;;;;;;;;;;;128.60;2252.80;;;;;;4890335;29;20253;-79
2022/02/05 03:36:50;;;;;;;;;;;128.30;2252.80;;;;;;4906330;29;20385;-76
2022/02/05 03:39:15;;;;;;;;;;;128.10;2252.80;;;;;;4911159;29;19926;-75
2022/02/05 03:41:41;;;;;;;;;;;128.30;2252.80;;;;;;4910071;29;19930;-77
2022/02/05 03:44:07;;;;;;;;;;;128.10;2252.80;;;;;;4909624;29;19907;-79
2022/02/05 03:46:32;;;;;;;;;;;128.30;2252.80;;;;;;4894135;29;19950;-79
2022/02/05 03:48:58;;;;;;;;;;;128.20;2252.80;;;;;;4909771;29;20006;-74
2022/02/05 03:51:24;;;;;;;;;;;128.10;2252.80;;;;;;4909425;29;19915;-76
2022/02/05 03:53:50;;;;;;;;;;;103.30;2227.20;;;;;;4910716;29;19931;-78
2022/02/05 03:56:16;;;;;;;;;;;128.20;2252.80;;;;;;4909252;29;19908;-78
2022/02/05 03:58:41;;;;;;;;;;;128.20;2252.80;;;;;;4910011;29;19907;-79
2022/02/05 04:01:07;;;;;;;;;;;128.00;2252.80;;;;;;4910413;29;19911;-78
2022/02/05 04:03:33;;;;;;;;;;;103.20;2227.20;;;;;;4908864;29;20002;-79
2022/02/05 04:05:58;;;;;;;;;;;128.00;2252.80;;;;;;4910412;29;19914;-75
2022/02/05 04:08:24;;;;;;;;;;;128.10;2252.80;;;;;;4909597;29;19914;-75
2022/02/05 04:11:01;;;;;;;;;;;103.20;2227.20;;;;;;4908613;29;19997;-79
2022/02/05 04:16:23;;;;;;;;;;;103.20;2227.20;;;;;;4908523;29;19922;-80
2022/02/05 04:18:50;;;;;;;;;;;103.30;2227.20;;;;;;4908721;29;19907;-77
2022/02/05 04:21:16;;;;;;;;;;;128.20;2252.80;;;;;;4894083;29;20276;-78
2022/02/05 04:23:41;;;;;;;;;;;128.30;2252.80;;;;;;4908584;29;19955;-79
2022/02/05 04:26:07;;;;;;;;;;;128.50;2252.80;;;;;;4908019;29;19914;-75
2022/02/05 04:28:33;;;;;;;;;;;128.60;2252.80;;;;;;4910448;29;20379;-79
2022/02/05 04:30:59;;;;;;;;;;;128.70;2252.80;;;;;;4890830;29;19970;-80
2022/02/05 04:33:24;;;;;;;;;;;128.90;2252.80;;;;;;4909103;29;19911;-75
2022/02/05 04:35:50;;;;;;;;;;;128.90;2252.80;;;;;;4908709;29;19972;-76
2022/02/05 04:38:17;;;;;;;;;;;128.90;2252.80;;;;;;4892960;29;19907;-75
2022/02/05 04:40:53;;;;;;;;;;;153.70;2252.80;;;;;;4908162;29;19914;-80
2022/02/05 05:20:10;;;;;;;;;;;153.70;2252.80;;;;;;4908036;29;20280;-78
2022/02/05 05:22:36;;;;;;;;;;;128.80;2252.80;;;;;;4891931;29;19907;-77
2022/02/05 05:25:02;;;;;;;;;;;128.60;2252.80;;;;;;4907660;29;19963;-77
2022/02/05 05:27:27;;;;;;;;;;;128.40;2252.80;;;;;;4908040;29;20001;-78
2022/02/05 05:29:53;;;;;;;;;;;128.40;2252.80;;;;;;4908584;29;19918;-77
2022/02/05 05:32:19;;;;;;;;;;;128.30;2252.80;;;;;;4889772;29;19936;-76
2022/02/05 05:34:44;;;;;;;;;;;128.50;2252.80;;;;;;4908377;29;19942;-78
2022/02/05 05:37:10;;;;;;;;;;;128.70;2252.80;;;;;;4908234;29;19911;-75
2022/02/05 05:39:38;;;;;;;;;;;128.20;2252.80;;;;;;4906753;29;19966;-78
2022/02/05 05:42:07;;;;;;;;;;;128.30;2252.80;;;;;;4891604;29;19923;-77
2022/02/05 05:49:58;;;;;;;;;;;128.30;2252.80;;;;;;4908941;29;19914;-78
2022/02/05 05:52:24;;;;;;;;;;;128.60;2252.80;;;;;;4908288;29;19938;-76
2022/02/05 05:54:49;;;;;;;;;;;128.80;2252.80;;;;;;4908011;29;20360;-78
2022/02/05 05:57:15;;;;;;;;;;;128.80;2252.80;;;;;;4906747;29;20368;-78
2022/02/05 05:59:42;;;;;;;;;;;128.90;2252.80;;;;;;4908242;29;19911;-78
2022/02/05 06:02:08;;;;;;;;;;;153.60;2252.80;;;;;;4907412;29;19920;-78
2022/02/05 06:04:34;;;;;;;;;;;153.80;2252.80;;;;;;4906675;29;20360;-78
2022/02/05 06:06:59;;;;;;;;;;;153.80;2252.80;;;;;;4891432;29;19914;-77
2022/02/05 06:09:25;;;;;;;;;;;153.80;2252.80;;;;;;4889972;29;20316;-79
2022/02/05 06:11:51;;;;;;;;;;;153.60;2252.80;;;;;;4907166;29;19923;-78
2022/02/05 06:14:21;;;;;;;;;;;153.60;2252.80;;;;;;4908237;29;21267;-77
2022/02/05 06:16:51;;;;;;;;;;;153.70;2252.80;;;;;;4908538;29;19907;-78
2022/02/05 06:19:17;;;;;;;;;;;153.60;2252.80;;;;;;4891294;29;19915;-78
2022/02/05 06:21:43;;;;;;;;;;;153.80;2252.80;;;;;;4908188;29;19910;-76
2022/02/05 06:24:09;;;;;;;;;;;153.70;2252.80;;;;;;4890085;29;20324;-77
2022/02/05 06:26:35;;;;;;;;;;;153.90;2252.80;;;;;;4906333;29;19929;-78
2022/02/05 06:29:00;;;;;;;;;;;153.90;2252.80;;;;;;4908022;29;19907;-76
2022/02/05 06:31:26;;;;;;;;;;;154.00;2252.80;;;;;;4906223;29;19966;-78
2022/02/05 06:33:51;;;;;;;;;;;153.80;2252.80;;;;;;4907307;29;20371;-78
2022/02/05 06:36:17;;;;;;;;;;;154.00;2252.80;;;;;;4907816;29;19912;-77
2022/02/05 06:38:43;;;;;;;;;;;154.00;2252.80;;;;;;4905883;29;19926;-78
2022/02/05 06:41:08;;;;;;;;;;;154.00;2252.80;;;;;;4907229;29;19911;-77
2022/02/05 06:43:34;;;;;;;;;;;154.00;2252.80;;;;;;4907393;29;19907;-77
2022/02/05 06:45:59;;;;;;;;;;;154.10;2252.80;;;;;;4905908;29;19908;-77
2022/02/05 06:48:25;;;;;;;;;;;154.10;2252.80;;;;;;4907791;29;20348;-75
2022/02/05 06:50:51;;;;;;;;;;;154.10;2252.80;;;;;;4889940;29;19915;-78
2022/02/05 06:53:16;;;;;;;;;;;154.10;2252.80;;;;;;4906158;29;19955;-75
2022/02/05 06:55:42;;;;;;;;;;;154.30;2252.80;;;;;;4891286;29;19907;-78
2022/02/05 06:58:08;;;;;;;;;;;154.20;2252.80;;;;;;4906144;29;20026;-76
2022/02/05 07:00:34;;;;;;;;;;;154.40;2252.80;;;;;;4906511;29;20380;-78
2022/02/05 07:02:59;;;;;;;;;;;154.40;2252.80;;;;;;4907577;29;19919;-75
2022/02/05 07:05:25;;;;;;;;;;;154.20;2252.80;;;;;;4909279;29;19907;-78
2022/02/05 07:07:51;;;;;;;;;;;154.20;2252.80;;;;;;4889625;29;19994;-74
2022/02/05 07:10:16;;;;;;;;;;;154.00;2252.80;;;;;;4906537;29;19918;-78
2022/02/05 07:15:31;;;;;;;;;;;153.90;2252.80;;;;;;4911274;29;19913;-80
2022/02/05 07:30:43;;;;;;;;;;;154.40;2252.80;;;;;;4909260;29;19927;-79
2022/02/05 07:33:09;;;;;;;;;;;154.40;2252.80;;;;;;4910878;29;19931;-83
2022/02/05 07:35:35;;;;;;;;;;;179.20;2252.80;;;;;;4911219;29;19907;-80
2022/02/05 07:38:00;;;;;;;;;;;179.30;2252.80;;;;;;4909086;29;20379;-82
2022/02/05 07:40:26;;;;;;;;;;;179.30;2252.80;;;;;;4914623;29;20033;-78
2022/02/05 07:42:51;;;;;;;;;;;179.40;2252.80;;;;;;4903106;29;19907;-75
2022/02/05 07:45:19;;;;;;;;;;;179.40;2252.80;;;;;;4919895;29;20317;-78
2022/02/05 07:47:45;;;;;;;;;;;179.20;2252.80;;;;;;4919929;29;19911;-75
2022/02/05 07:50:11;;;;;;;;;;;179.30;2252.80;;;;;;4919895;29;19914;-79
2022/02/05 07:52:37;;;;;;;;;;;179.30;2252.80;;;;;;4920006;29;19919;-76
2022/02/05 07:55:03;;;;;;;;;;;179.40;2252.80;;;;;;4919730;29;19918;-77
2022/02/05 07:57:30;;;;;;;;;;;154.50;2252.80;;;;;;4918436;29;19915;-75
2022/02/05 07:59:55;;;;;;;;;;;154.50;2252.80;;;;;;4920155;29;19966;-79
2022/02/05 08:02:21;;;;;;;;;;;154.50;2252.80;;;;;;4919967;29;19911;-79
2022/02/05 08:04:46;;;;;;;;;;;154.50;2252.80;;;;;;4919520;29;20265;-79
2022/02/05 08:07:13;;;;;;;;;;;179.20;2252.80;;;;;;4905058;29;19915;-75
2022/02/05 08:12:14;;;;;;;;;;;179.40;2252.80;;;;;;4900355;29;20044;-80
2022/02/05 08:14:45;;;;;;;;;;;179.60;2252.80;;;;;;4884748;29;19946;-79
2022/02/05 08:17:19;;;;;;;;;;;179.30;2252.80;;;;;;4908945;29;19991;-79
2022/02/05 08:19:48;;;;;;;;;;;179.60;2252.80;;;;;;4903820;29;19963;-75
2022/02/05 08:22:14;;;;;;;;;;;179.50;2252.80;;;;;;4899970;29;19907;-78
2022/02/05 08:24:40;;;;;;;;;;;179.80;2252.80;;;;;;4900226;29;19954;-76
2022/02/05 08:27:06;;;;;;;;;;;180.00;2252.80;;;;;;4904300;29;20275;-78
2022/02/05 08:29:32;;;;;;;;;;;180.10;2252.80;;;;;;4908826;29;19911;-76
2022/02/05 08:31:59;;;;;;;;;;;180.10;2252.80;;;;;;4910028;29;19927;-80
2022/02/05 08:34:24;;;;;;;;;;;204.80;2252.80;;;;;;4909063;29;19907;-83
2022/02/05 08:36:51;;;;;;;;;;;180.10;2252.80;;;;;;4907951;29;19908;-77
2022/02/05 08:39:19;;;;;;;;;;;180.10;2252.80;;;;;;4913935;29;19919;-82
2022/02/05 08:41:45;;;;;;;;;;;180.10;2252.80;;;;;;4918733;29;19946;-74
2022/02/05 08:44:11;;;;;;;;;;;180.10;2252.80;;;;;;4918923;29;19945;-75
2022/02/05 08:46:36;;;;;;;;;;;204.80;2252.80;;;;;;4919186;29;19907;-80
2022/02/05 08:49:03;;;;;;;;;;;204.80;2252.80;;;;;;4918822;29;19963;-77
2022/02/05 08:51:28;;;;;;;;;;;205.00;2252.80;;;;;;4901331;29;19978;-77
2022/02/05 08:53:55;;;;;;;;;;;205.10;2252.80;;;;;;4901927;29;19907;-75
2022/02/05 08:56:22;;;;;;;;;;;205.10;2252.80;;;;;;4901827;29;19933;-78
2022/02/05 08:58:48;;;;;;;;;;;205.10;2252.80;;;;;;4901741;29;19938;-75
2022/02/05 09:01:18;;;;;;;;;;;205.20;2252.80;;;;;;4918566;29;19915;-78
2022/02/05 09:06:10;;;;;;;;;;;205.40;2252.80;;;;;;4918138;29;20367;-77
2022/02/05 09:08:46;;;;;;;;;;;205.40;2252.80;;;;;;4918392;29;19915;-75
2022/02/05 09:16:11;;;;;;;;;;;205.40;2252.80;;;;;;4918027;29;19989;-80
2022/02/05 09:18:38;;;;;;;;;;;205.40;2252.80;;;;;;4918053;29;20368;-79
2022/02/05 09:21:03;;;;;;;;;;;205.40;2252.80;;;;;;4918558;29;19907;-78
2022/02/05 09:23:29;;;;;;;;;;;205.40;2252.80;;;;;;4918108;29;19922;-81
2022/02/05 09:25:57;;;;;;;;;;;205.60;2252.80;;;;;;4914545;29;20005;-78
2022/02/05 09:28:22;;;;;;;;;;;230.40;2252.80;;;;;;4897084;29;19962;-77
2022/02/05 09:33:36;;;;;;;;;;;230.70;2252.80;;;;;;4908585;29;19918;-76
2022/02/05 09:36:02;;;;;;;;;;;230.90;2252.80;;;;;;4906472;29;20383;-75
2022/02/05 09:38:28;;;;;;;;;;;231.10;2252.80;;;;;;4901544;29;19979;-77
2022/02/05 09:40:54;;;;;;;;;;;231.30;2252.80;;;;;;4905174;29;20383;-78
2022/02/05 09:43:27;;;;;;;;;;;231.30;2252.80;;;;;;4908156;29;19918;-78
2022/02/05 09:45:53;;;;;;;;;;;256.00;2252.80;;;;;;4915416;29;19907;-78
2022/02/05 09:48:19;;;;;;;;;;;256.10;2252.80;;;;;;4909156;29;20006;-76
2022/02/05 09:50:45;;;;;;;;;;;256.20;2252.80;;;;;;4908459;29;19907;-81
2022/02/05 09:53:16;;;;;;;;;;;256.40;2252.80;;;;;;4907832;29;19914;-76
2022/02/05 09:55:42;;;;;;;;;;;256.70;2252.80;;;;;;4906150;29;19907;-77
2022/02/05 09:58:08;;;;;;;;;;;256.90;2252.80;;;;;;4898669;29;19994;-77
2022/02/05 10:00:35;;;;;;;;;;;281.80;2278.40;;;;;;4882003;29;19955;-80
2022/02/05 10:03:02;;;;;;;;;;;282.20;2278.40;;;;;;4898559;29;19911;-79
2022/02/05 10:05:33;;;;;;;;;;;282.30;2278.40;;;;;;4881532;29;19908;-75
2022/02/05 10:08:03;;;;;;;;;;;282.30;2278.40;;;;;;4898755;29;19912;-75
2022/02/05 10:10:38;;;;;;;;;;;282.40;2278.40;;;;;;4898393;29;19919;-77
2022/02/05 10:13:10;;;;;;;;;;;282.40;2278.40;;;;;;4902313;29;19911;-82
2022/02/05 10:15:37;;;;;;;;;;;282.50;2278.40;;;;;;4908837;29;19911;-81
2022/02/05 10:18:03;;;;;;;;;;;307.20;2304.00;;;;;;4907095;29;20129;-83
2022/02/05 10:20:29;;;;;;;;;;;307.30;2304.00;;;;;;4899771;29;20040;-76
2022/02/05 10:22:55;;;;;;;;;;;307.30;2304.00;;;;;;4898542;29;19922;-84
2022/02/05 10:25:22;;;;;;;;;;;307.40;2304.00;;;;;;4898401;29;19986;-83
2022/02/05 10:27:49;;;;;;;;;;;307.50;2304.00;;;;;;4898348;29;19907;-84
2022/02/05 10:30:20;;;;;;;;;;;307.70;2304.00;;;;;;4898324;29;19918;-75
2022/02/05 10:32:49;;;;;;;;;;;307.50;2304.00;;;;;;4881572;29;19920;-83
2022/02/05 10:35:26;;;;;;;;;;;307.50;2304.00;;;;;;4898337;29;19908;-85
2022/02/05 10:38:04;;;;;;;;;;;307.60;2304.00;;;;;;4881851;29;19967;-84
2022/02/05 10:43:00;;;;;;;;;;;307.70;2304.00;;;;;;4897970;29;19919;-82
2022/02/05 10:43:32;;;;;;;;;;;307.60;2304.00;;;;;;4894682;29;19919;-85
2022/02/05 10:46:00;;;;;;;;;;;307.60;2304.00;;;;;;4898418;29;19908;-76
2022/02/05 10:48:26;;;;;;;;;;;307.60;2304.00;;;;;;4898199;29;19994;-78
2022/02/05 10:50:53;;;;;;;;;;;307.50;2304.00;;;;;;4898991;29;20022;-81
2022/02/05 10:53:25;;;;;;;;;;;307.50;2304.00;;;;;;4905332;29;20001;-79
2022/02/05 10:56:19;;;;;;;;;;;307.40;2304.00;;;;;;4903785;29;19907;-82
2022/02/05 11:07:10;;;;;;;;;;;308.00;2304.00;;;;;;4908064;29;19971;-77
2022/02/05 11:09:37;;;;;;;;;;;332.90;2329.60;;;;;;4907788;29;20379;-86
2022/02/05 11:20:12;;;;;;;;;;;333.10;2329.60;;;;;;4908380;29;19914;-82
2022/02/05 11:22:49;;;;;;;;;;;333.10;2329.60;;;;;;4907267;29;19935;-84
2022/02/05 11:25:15;;;;;;;;;;;333.00;2329.60;;;;;;4905862;29;19907;-85
2022/02/05 11:27:45;;;;;;;;;;;333.10;2329.60;;;;;;4898518;29;19931;-81
2022/02/05 11:30:29;;;;;;;;;;;333.20;2329.60;;;;;;4905504;29;19911;-80
2022/02/05 11:32:56;;;;;;;;;;;333.20;2329.60;;;;;;4907982;29;19923;-88
2022/02/05 11:35:41;;;;;;;;;;;333.20;2304.00;;;;;;4914976;29;20418;-87
2022/02/05 11:38:06;;;;;;;;;;;333.30;2252.80;;;;;;4913300;29;20002;-88
2022/02/05 11:40:44;;;;;;;;;;;358.40;2201.60;;;;;;4905482;29;19979;-87
2022/02/05 11:43:16;;;;;;;;;;;358.70;2073.60;;;;;;4904282;29;19907;-87
2022/02/05 11:45:41;;;;;;;;;;;359.00;2022.40;;;;;;4906283;29;20387;-89
2022/02/05 11:48:26;;;;;;;;;;;359.10;1996.80;;;;;;4906202;29;19915;-85
2022/02/05 11:51:10;;;;;;;;;;;359.00;2048.00;;;;;;4908210;29;19923;-88
2022/02/05 11:53:54;;;;;;;;;;;358.90;2073.60;;;;;;4911247;29;20006;-89
2022/02/05 11:56:19;;;;;;;;;;;359.00;2048.00;;;;;;4896734;29;19915;-83
2022/02/05 11:58:58;;;;;;;;;;;359.00;2022.40;;;;;;4895090;29;20373;-85
2022/02/05 12:01:37;;;;;;;;;;;359.10;2022.40;;;;;;4916605;29;19939;-75
2022/02/05 12:04:13;;;;;;;;;;;359.20;1894.40;;;;;;4905404;29;19912;-83
2022/02/05 12:06:49;;;;;;;;;;;359.10;1920.00;;;;;;4901507;29;19954;-75
2022/02/05 12:09:34;;;;;;;;;;;358.90;1945.60;;;;;;4908872;29;19914;-76
2022/02/05 12:12:18;;;;;;;;;;;358.60;1920.00;;;;;;4911549;29;19938;-77
2022/02/05 12:15:03;;;;;;;;;;;333.70;1971.20;;;;;;4919621;29;19911;-82
2022/02/05 12:17:39;;;;;;;;;;;333.50;1971.20;;;;;;4919871;29;19918;-76
2022/02/05 12:20:20;;;;;;;;;;;333.60;2048.00;;;;;;4919535;29;19971;-82
2022/02/05 12:25:53;;;;;;;;;;;333.60;2099.20;;;;;;4919173;29;19907;-75
2022/02/05 12:28:35;;;;;;;;;;;333.50;2150.40;;;;;;4919505;29;19938;-82
2022/02/05 12:31:02;;;;;;;;;;;333.40;2176.00;;;;;;4918956;29;19915;-75
2022/02/05 12:33:46;;;;;;;;;;;333.40;2176.00;;;;;;4919346;29;19918;-81
2022/02/05 12:36:13;;;;;;;;;;;333.20;2227.20;;;;;;4918216;29;20048;-79
2022/02/05 12:38:39;;;;;;;;;;;333.00;2252.80;;;;;;4918901;29;20292;-81
2022/02/05 12:41:05;;;;;;;;;;;332.80;2252.80;;;;;;4919077;29;20288;-83
2022/02/05 12:43:47;;;;;;;;;;;308.10;2278.40;;;;;;4918860;29;19913;-81
2022/02/05 12:46:13;;;;;;;;;;;308.10;2304.00;;;;;;4918930;29;19907;-76
2022/02/05 12:48:40;;;;;;;;;;;307.90;2227.20;;;;;;4919038;29;19911;-79
2022/02/05 12:51:06;;;;;;;;;;;307.90;2252.80;;;;;;4901859;29;20014;-82
2022/02/05 12:53:32;;;;;;;;;;;307.80;2278.40;;;;;;4915764;29;19954;-75
2022/02/05 12:56:12;;;;;;;;;;;307.80;2278.40;;;;;;4910390;29;19974;-80
2022/02/05 12:59:01;;;;;;;;;;;307.60;2278.40;;;;;;4909823;29;19907;-75
2022/02/05 13:01:27;;;;;;;;;;;307.70;2304.00;;;;;;4910645;29;19960;-82
2022/02/05 13:04:08;;;;;;;;;;;307.60;2278.40;;;;;;4908490;29;19950;-79
2022/02/05 13:06:34;;;;;;;;;;;307.60;2278.40;;;;;;4908100;29;20275;-77
2022/02/05 13:08:59;;;;;;;;;;;307.60;2304.00;;;;;;4909005;29;19921;-77
2022/02/05 13:11:29;;;;;;;;;;;307.50;2304.00;;;;;;4906832;29;19982;-85
2022/02/05 13:13:55;;;;;;;;;;;307.50;2304.00;;;;;;4909834;29;19907;-75
2022/02/05 13:16:21;;;;;;;;;;;307.50;2304.00;;;;;;4909690;29;20437;-75
2022/02/05 13:19:03;;;;;;;;;;;307.60;2304.00;;;;;;4909802;29;19993;-75
2022/02/05 13:27:24;;;;;;;;;;;307.30;2201.60;;;;;;4908652;29;19919;-81
2022/02/05 13:35:18;;;;;;;;;;;307.30;2176.00;;;;;;4907275;29;19955;-83
2022/02/05 13:37:52;;;;;;;;;;;307.30;2176.00;;;;;;4909386;29;20313;-76
2022/02/05 13:40:18;;;;;;;;;;;307.30;2201.60;;;;;;4906596;29;20492;-84
2022/02/05 13:42:48;;;;;;;;;;;307.20;2201.60;;;;;;4908417;29;19998;-82
2022/02/05 13:45:37;;;;;;;;;;;307.20;2176.00;;;;;;4893082;29;19911;-76
2022/02/05 13:48:04;;;;;;;;;;;282.50;2124.80;;;;;;4901285;29;19998;-78
2022/02/05 13:50:37;;;;;;;;;;;282.40;2099.20;;;;;;4908113;29;20055;-78
2022/02/05 13:53:03;;;;;;;;;;;282.40;2124.80;;;;;;4906495;29;19920;-76
2022/02/05 13:55:30;;;;;;;;;;;282.40;2048.00;;;;;;4906197;29;20007;-82
2022/02/05 13:57:56;;;;;;;;;;;282.30;1996.80;;;;;;4907245;29;20075;-85
2022/02/05 14:00:22;;;;;;;;;;;282.20;2022.40;;;;;;4908550;29;20380;-82
2022/02/05 14:02:57;;;;;;;;;;;282.20;1996.80;;;;;;4906480;29;19965;-82
2022/02/05 14:05:23;;;;;;;;;;;282.20;2022.40;;;;;;4908512;29;20047;-84
2022/02/05 14:07:48;;;;;;;;;;;282.20;1996.80;;;;;;4891429;29;20397;-82
2022/02/05 14:10:15;;;;;;;;;;;282.30;1996.80;;;;;;4909538;29;19914;-76
2022/02/05 14:12:52;;;;;;;;;;;282.20;1971.20;;;;;;4907450;29;19944;-84
2022/02/05 14:15:18;;;;;;;;;;;282.10;1971.20;;;;;;4905218;29;19970;-84
2022/02/05 14:17:46;;;;;;;;;;;281.90;1996.80;;;;;;4907184;29;19907;-79
2022/02/05 14:20:13;;;;;;;;;;;281.90;1996.80;;;;;;4888247;29;19915;-84
2022/02/05 14:22:41;;;;;;;;;;;281.80;2022.40;;;;;;4905884;29;19915;-80
2022/02/05 14:25:09;;;;;;;;;;;281.90;2022.40;;;;;;4907486;29;19959;-85
2022/02/05 14:27:36;;;;;;;;;;;281.70;2048.00;;;;;;4906606;29;19911;-84
2022/02/05 14:30:11;;;;;;;;;;;281.60;2073.60;;;;;;4909539;29;20002;-85
2022/02/05 14:35:09;;;;;;;;;;;256.70;2048.00;;;;;;4906379;29;20009;-84
2022/02/05 14:40:43;;;;;;;;;;;256.80;2022.40;;;;;;4908614;29;20028;-82
2022/02/05 14:43:09;;;;;;;;;;;256.70;1945.60;;;;;;4908052;29;19967;-84
2022/02/05 14:45:34;;;;;;;;;;;256.50;1792.00;;;;;;4892032;29;19967;-82
2022/02/05 14:48:00;;;;;;;;;;;256.60;1766.40;;;;;;4908448;29;19950;-83
2022/02/05 14:50:26;;;;;;;;;;;256.60;1715.20;;;;;;4905717;29;19919;-76
2022/02/05 14:52:51;;;;;;;;;;;256.50;1740.80;;;;;;4912405;29;19923;-83
2022/02/05 14:55:18;;;;;;;;;;;256.60;1715.20;;;;;;4906361;29;19907;-78
2022/02/05 14:57:45;;;;;;;;;;;256.50;1766.40;;;;;;4908892;29;19997;-80
2022/02/05 15:00:10;;;;;;;;;;;256.40;1740.80;;;;;;4906572;29;19911;-83
2022/02/05 15:02:36;;;;;;;;;;;256.40;1766.40;;;;;;4891271;29;19968;-82
2022/02/05 15:05:09;;;;;;;;;;;256.30;1766.40;;;;;;4908780;29;19916;-79
2022/02/05 15:07:35;;;;;;;;;;;256.30;1792.00;;;;;;4906188;29;20001;-80
2022/02/05 15:10:01;;;;;;;;;;;256.30;1817.60;;;;;;4906195;29;19923;-83
2022/02/05 15:12:26;;;;;;;;;;;256.40;1817.60;;;;;;4907542;29;20276;-84
2022/02/05 15:14:52;;;;;;;;;;;256.50;1843.20;;;;;;4907250;29;19907;-82
2022/02/05 15:17:18;;;;;;;;;;;256.50;1843.20;;;;;;4906884;29;19994;-79
2022/02/05 15:19:43;;;;;;;;;;;256.50;1894.40;;;;;;4907400;29;19907;-77
2022/02/05 15:22:09;;;;;;;;;;;256.30;1945.60;;;;;;4904266;29;19911;-81
2022/02/05 15:24:34;;;;;;;;;;;256.20;1945.60;;;;;;4898057;29;19936;-81
2022/02/05 15:27:01;;;;;;;;;;;256.30;1920.00;;;;;;4885963;29;19912;-78
2022/02/05 15:29:27;;;;;;;;;;;256.30;1945.60;;;;;;4907773;29;19990;-84
2022/02/05 15:31:53;;;;;;;;;;;256.30;1920.00;;;;;;4905937;29;19923;-75
2022/02/05 15:34:19;;;;;;;;;;;256.50;1945.60;;;;;;4894847;29;19911;-78
2022/02/05 15:36:53;;;;;;;;;;;256.30;1920.00;;;;;;4920104;29;19907;-79
2022/02/05 15:44:47;;;;;;;;;;;256.30;1920.00;;;;;;4911886;29;19966;-84
2022/02/05 15:47:12;;;;;;;;;;;256.20;1920.00;;;;;;4893899;29;19911;-78
2022/02/05 15:49:38;;;;;;;;;;;256.20;1894.40;;;;;;4908934;29;19907;-86
2022/02/05 15:52:05;;;;;;;;;;;256.20;1894.40;;;;;;4911131;29;19941;-81
2022/02/05 15:54:31;;;;;;;;;;;256.50;1920.00;;;;;;4909793;29;19911;-78
2022/02/05 16:02:19;;;;;;;;;;;256.80;1894.40;;;;;;4911476;29;19915;-84
2022/02/05 16:04:46;;;;;;;;;;;256.90;1894.40;;;;;;4908402;29;19963;-75
2022/02/05 16:07:11;;;;;;;;;;;256.80;1945.60;;;;;;4891887;29;19907;-84
2022/02/05 16:09:37;;;;;;;;;;;256.90;1945.60;;;;;;4911184;29;20428;-82
2022/02/05 16:12:03;;;;;;;;;;;256.80;1971.20;;;;;;4908535;29;20408;-79
2022/02/05 16:14:29;;;;;;;;;;;256.40;1971.20;;;;;;4909917;29;19915;-81
2022/02/05 16:16:54;;;;;;;;;;;256.60;1996.80;;;;;;4910517;29;19940;-80
2022/02/05 16:19:20;;;;;;;;;;;256.60;2022.40;;;;;;4909505;29;19910;-82
2022/02/05 16:21:45;;;;;;;;;;;256.50;2048.00;;;;;;4910851;29;20288;-83
2022/02/05 16:24:11;;;;;;;;;;;256.50;2048.00;;;;;;4896576;29;19958;-74
2022/02/05 16:26:37;;;;;;;;;;;256.60;2048.00;;;;;;4913090;29;19926;-83
2022/02/05 16:29:03;;;;;;;;;;;256.60;2048.00;;;;;;4910762;29;19918;-78
2022/02/05 16:31:29;;;;;;;;;;;256.60;2048.00;;;;;;4908744;29;19919;-83
2022/02/05 16:34:01;;;;;;;;;;;256.60;2073.60;;;;;;4909978;29;19922;-83
2022/02/05 16:36:30;;;;;;;;;;;256.60;2073.60;;;;;;4908456;29;20289;-82
2022/02/05 16:38:58;;;;;;;;;;;256.50;2124.80;;;;;;4892817;29;19921;-81
2022/02/05 16:41:24;;;;;;;;;;;256.40;2124.80;;;;;;4910113;29;19915;-84
2022/02/05 16:43:50;;;;;;;;;;;256.50;2150.40;;;;;;4908264;29;20418;-76
2022/02/05 16:46:21;;;;;;;;;;;256.50;2176.00;;;;;;4910650;29;19915;-83
2022/02/05 16:48:47;;;;;;;;;;;256.50;2176.00;;;;;;4909689;29;19907;-78
2022/02/05 16:51:15;;;;;;;;;;;256.50;2150.40;;;;;;4910869;29;19923;-84
2022/02/05 16:53:42;;;;;;;;;;;256.60;2176.00;;;;;;4908268;29;20364;-86
2022/02/05 16:56:08;;;;;;;;;;;256.50;2176.00;;;;;;4916460;29;20325;-77
2022/02/05 16:58:36;;;;;;;;;;;256.50;2176.00;;;;;;4918938;29;19907;-78
2022/02/05 17:01:02;;;;;;;;;;;256.50;2176.00;;;;;;4918914;29;19918;-76
2022/02/05 17:03:28;;;;;;;;;;;256.50;2176.00;;;;;;4918803;29;19918;-75
2022/02/05 17:05:53;;;;;;;;;;;256.50;2176.00;;;;;;4918884;29;19907;-81
2022/02/05 17:08:19;;;;;;;;;;;256.50;2176.00;;;;;;4919034;29;20408;-76
2022/02/05 17:10:45;;;;;;;;;;;256.50;2176.00;;;;;;4917607;29;19953;-80
2022/02/05 17:13:11;;;;;;;;;;;256.30;2176.00;;;;;;4902006;29;19918;-81